createdAt,value
2023-04-28T00:00:09.112Z,4.60
2023-04-28T00:02:37.762Z,5.80
2023-04-28T00:05:07.183Z,5.75
2023-04-28T00:07:35.733Z,7.28
2023-04-28T00:10:04.068Z,5.05
2023-04-28T00:12:35.479Z,7.45
2023-04-28T00:15:05.788Z,9.02
2023-04-28T00:17:36.774Z,8.15
2023-04-28T00:20:05.887Z,10.07
2023-04-28T00:22:34.388Z,10.75
2023-04-28T00:25:03.258Z,5.90
2023-04-28T00:27:34.663Z,6.93
2023-04-28T00:30:04.870Z,5.25
2023-04-28T00:32:35.342Z,5.25
2023-04-28T00:35:03.784Z,5.22
2023-04-28T00:37:37.837Z,4.90
2023-04-28T00:40:07.872Z,3.97
2023-04-28T00:42:36.151Z,4.68
2023-04-28T00:45:07.428Z,6.88
2023-04-28T00:47:38.363Z,6.50
2023-04-28T00:50:07.605Z,4.95
2023-04-28T00:52:36.034Z,9.07
2023-04-28T00:55:06.321Z,7.88
2023-04-28T00:57:35.171Z,7.22
2023-04-28T01:00:05.323Z,6.93
2023-04-28T01:02:35.169Z,7.78
2023-04-28T01:05:04.304Z,6.97
2023-04-28T01:07:34.934Z,6.50
2023-04-28T01:10:04.920Z,6.05
2023-04-28T01:12:35.766Z,8.18
2023-04-28T01:15:06.444Z,8.48
2023-04-28T01:17:35.115Z,7.85
2023-04-28T01:20:04.688Z,6.13
2023-04-28T01:22:33.534Z,6.15
2023-04-28T01:25:04.152Z,8.43
2023-04-28T01:27:32.649Z,5.90
2023-04-28T01:30:02.129Z,5.18
2023-04-28T01:32:33.292Z,7.22
2023-04-28T01:35:01.653Z,7.18
2023-04-28T01:37:31.141Z,6.97
2023-04-28T01:39:59.420Z,7.90
2023-04-28T01:42:28.987Z,5.82
2023-04-28T01:44:57.294Z,7.32
2023-04-28T01:47:25.833Z,6.53
2023-04-28T01:49:54.128Z,6.10
2023-04-28T01:52:24.196Z,5.80
2023-04-28T01:54:53.592Z,5.47
2023-04-28T01:57:22.490Z,7.18
2023-04-28T01:59:53.583Z,5.70
2023-04-28T02:02:23.301Z,5.57
2023-04-28T02:04:52.472Z,7.32
2023-04-28T02:07:21.265Z,8.90
2023-04-28T02:09:49.672Z,8.27
2023-04-28T02:12:18.548Z,7.95
2023-04-28T02:14:47.155Z,9.57
2023-04-28T02:17:16.823Z,10.95
2023-04-28T02:19:45.128Z,11.95
2023-04-28T02:22:14.728Z,15.13
2023-04-28T02:24:43.021Z,22.27
2023-04-28T02:27:11.248Z,31.88
2023-04-28T02:29:39.415Z,23.55
2023-04-28T02:32:08.059Z,34.83
2023-04-28T02:34:37.650Z,29.40
2023-04-28T02:37:05.966Z,32.70
2023-04-28T02:39:34.701Z,35.20
2023-04-28T02:42:05.410Z,16.33
2023-04-28T02:44:33.717Z,12.20
2023-04-28T02:47:02.330Z,10.38
2023-04-28T02:49:30.995Z,16.35
2023-04-28T02:52:00.643Z,7.82
2023-04-28T02:54:29.388Z,6.95
2023-04-28T02:56:59.620Z,9.52
2023-04-28T02:59:28.285Z,9.15
2023-04-28T03:01:56.885Z,8.93
2023-04-28T03:04:25.606Z,4.85
2023-04-28T03:06:54.067Z,7.97
2023-04-28T03:09:23.776Z,7.10
2023-04-28T03:11:52.107Z,6.35
2023-04-28T03:14:20.939Z,5.50
2023-04-28T03:16:49.579Z,6.55
2023-04-28T03:19:18.069Z,6.45
2023-04-28T03:21:47.829Z,7.05
2023-04-28T03:24:16.585Z,10.30
2023-04-28T03:26:47.428Z,5.32
2023-04-28T03:29:16.106Z,10.07
2023-04-28T03:31:44.546Z,8.07
2023-04-28T03:34:12.872Z,7.45
2023-04-28T03:36:41.129Z,5.20
2023-04-28T03:39:17.502Z,7.72
2023-04-28T03:41:47.242Z,7.57
2023-04-28T03:44:33.622Z,6.63
2023-04-28T03:47:02.542Z,7.07
2023-04-28T03:49:31.364Z,9.82
2023-04-28T03:52:00.105Z,7.93
2023-04-28T03:54:28.442Z,13.43
2023-04-28T03:56:58.465Z,7.85
2023-04-28T03:59:26.938Z,8.60
2023-04-28T04:01:55.214Z,22.27
2023-04-28T04:04:23.848Z,10.15
2023-04-28T04:06:53.521Z,7.20
2023-04-28T04:09:21.840Z,9.43
2023-04-28T04:11:50.053Z,5.75
2023-04-28T04:14:19.890Z,14.80
2023-04-28T04:16:49.499Z,5.13
2023-04-28T04:19:17.909Z,13.07
2023-04-28T04:21:48.089Z,7.65
2023-04-28T04:24:16.598Z,7.78
2023-04-28T04:26:45.048Z,7.35
2023-04-28T04:29:27.772Z,8.10
2023-04-28T04:31:56.519Z,8.65
2023-04-28T04:34:24.880Z,13.68
2023-04-28T04:36:53.217Z,8.85
2023-04-28T04:39:21.749Z,9.43
2023-04-28T04:41:50.123Z,13.15
2023-04-28T04:44:49.280Z,11.95
2023-04-28T04:47:38.035Z,10.70
2023-04-28T04:50:07.490Z,5.63
2023-04-28T04:52:35.746Z,11.23
2023-04-28T04:55:04.284Z,12.82
2023-04-28T04:57:33.871Z,16.83
2023-04-28T05:00:15.753Z,7.82
2023-04-28T05:02:45.286Z,14.48
2023-04-28T05:05:21.464Z,14.27
2023-04-28T05:08:14.601Z,16.05
2023-04-28T05:10:43.048Z,17.55
2023-04-28T05:13:11.762Z,16.50
2023-04-28T05:15:42.533Z,17.00
2023-04-28T05:18:31.637Z,16.55
2023-04-28T05:21:00.387Z,12.80
2023-04-28T05:23:28.577Z,13.90
2023-04-28T05:25:57.044Z,23.05
2023-04-28T05:28:25.497Z,17.90
2023-04-28T05:30:57.960Z,13.88
2023-04-28T05:33:26.285Z,20.05
2023-04-28T05:35:54.959Z,15.98
2023-04-28T05:38:23.651Z,14.65
2023-04-28T05:40:53.017Z,16.02
2023-04-28T05:43:21.309Z,12.15
2023-04-28T05:45:50.919Z,16.00
2023-04-28T05:48:21.456Z,19.58
2023-04-28T05:50:49.667Z,24.52
2023-04-28T05:53:17.954Z,24.65
2023-04-28T05:55:46.228Z,15.95
2023-04-28T05:58:15.155Z,15.93
2023-04-28T06:00:43.454Z,12.70
2023-04-28T06:03:14.467Z,12.25
2023-04-28T06:05:44.819Z,8.70
2023-04-28T06:08:14.668Z,12.35
2023-04-28T06:10:42.909Z,6.63
2023-04-28T06:13:12.626Z,8.73
2023-04-28T06:15:43.403Z,9.13
2023-04-28T06:18:11.715Z,9.93
2023-04-28T06:20:40.034Z,10.50
2023-04-28T06:23:10.198Z,6.20
2023-04-28T06:25:44.815Z,9.90
2023-04-28T06:28:14.952Z,13.35
2023-04-28T06:30:43.495Z,9.68
2023-04-28T06:33:11.808Z,12.95
2023-04-28T06:35:41.320Z,12.52
2023-04-28T06:38:11.174Z,9.80
2023-04-28T06:40:40.751Z,10.50
2023-04-28T06:43:09.164Z,8.88
2023-04-28T06:45:43.936Z,14.93
2023-04-28T06:48:12.447Z,10.82
2023-04-28T06:50:42.385Z,12.63
2023-04-28T06:53:14.121Z,15.07
2023-04-28T06:55:42.722Z,11.13
2023-04-28T06:58:11.446Z,11.15
2023-04-28T07:00:39.991Z,10.15
2023-04-28T07:03:08.792Z,7.75
2023-04-28T07:05:37.531Z,8.02
2023-04-28T07:08:06.127Z,8.80
2023-04-28T07:10:35.797Z,8.50
2023-04-28T07:13:04.036Z,7.88
2023-04-28T07:15:32.607Z,11.10
2023-04-28T07:18:01.622Z,7.32
2023-04-28T07:20:30.105Z,11.48
2023-04-28T07:22:58.435Z,6.32
2023-04-28T07:25:27.092Z,8.25
2023-04-28T07:27:57.394Z,14.82
2023-04-28T07:30:27.715Z,8.45
2023-04-28T07:32:56.775Z,8.05
2023-04-28T07:35:25.275Z,8.15
2023-04-28T07:37:54.805Z,8.25
2023-04-28T07:40:23.484Z,6.95
2023-04-28T07:42:52.150Z,10.02
2023-04-28T07:45:21.781Z,9.32
2023-04-28T07:47:50.108Z,9.32
2023-04-28T07:50:18.477Z,8.15
2023-04-28T07:52:46.778Z,9.40
2023-04-28T07:55:15.039Z,8.15
2023-04-28T07:57:43.426Z,6.82
2023-04-28T08:00:12.636Z,6.07
2023-04-28T08:02:42.908Z,5.35
2023-04-28T08:05:11.878Z,5.50
2023-04-28T08:07:40.200Z,10.48
2023-04-28T08:10:10.140Z,3.55
2023-04-28T08:12:38.780Z,8.52
2023-04-28T08:15:08.296Z,4.07
2023-04-28T08:17:36.724Z,5.53
2023-04-28T08:20:08.171Z,4.53
2023-04-28T08:22:36.800Z,8.18
2023-04-28T08:25:05.779Z,4.88
2023-04-28T08:27:34.359Z,3.25
2023-04-28T08:30:02.582Z,4.18
2023-04-28T08:32:32.493Z,6.38
2023-04-28T08:35:00.816Z,3.42
2023-04-28T08:37:30.939Z,5.60
2023-04-28T08:40:02.314Z,3.95
2023-04-28T08:42:32.713Z,5.95
2023-04-28T08:45:01.048Z,10.52
2023-04-28T08:47:35.185Z,8.65
2023-04-28T08:50:05.283Z,8.73
2023-04-28T08:52:35.965Z,5.95
2023-04-28T08:55:08.596Z,9.65
2023-04-28T08:57:41.416Z,7.70
2023-04-28T09:00:11.227Z,8.85
2023-04-28T09:02:42.471Z,6.88
2023-04-28T09:05:13.074Z,13.13
2023-04-28T09:07:46.634Z,9.82
2023-04-28T09:10:22.413Z,14.90
2023-04-28T09:12:55.164Z,8.82
2023-04-28T09:15:34.535Z,9.60
2023-04-28T09:18:04.141Z,6.18
2023-04-28T09:20:34.088Z,4.68
2023-04-28T09:23:17.806Z,6.82
2023-04-28T09:26:01.019Z,8.02
2023-04-28T09:28:29.717Z,8.32
2023-04-28T09:30:58.088Z,5.20
2023-04-28T09:33:26.956Z,6.88
2023-04-28T09:35:56.698Z,5.15
2023-04-28T09:38:26.519Z,3.17
2023-04-28T09:40:59.690Z,3.42
2023-04-28T09:43:30.069Z,8.45
2023-04-28T09:46:00.379Z,3.53
2023-04-28T09:48:30.835Z,4.32
2023-04-28T09:50:59.559Z,4.63
2023-04-28T09:53:30.005Z,4.90
2023-04-28T09:56:00.056Z,3.97
2023-04-28T09:58:29.759Z,5.38
2023-04-28T10:00:59.792Z,3.92
2023-04-28T10:03:30.406Z,2.95
2023-04-28T10:05:59.992Z,2.58
2023-04-28T10:08:29.883Z,3.85
2023-04-28T10:10:58.967Z,4.15
2023-04-28T10:13:27.234Z,4.38
2023-04-28T10:15:58.205Z,4.70
2023-04-28T10:18:27.416Z,2.72
2023-04-28T10:21:01.210Z,4.60
2023-04-28T10:23:57.196Z,4.68
2023-04-28T10:26:37.518Z,5.07
2023-04-28T10:29:06.936Z,2.20
2023-04-28T10:31:37.082Z,2.55
2023-04-28T10:34:23.584Z,2.00
2023-04-28T10:36:55.854Z,2.97
2023-04-28T10:39:25.533Z,3.35
2023-04-28T10:41:53.797Z,2.92
2023-04-28T10:44:42.982Z,2.25
2023-04-28T10:50:06.916Z,3.30
2023-04-28T10:52:51.565Z,2.58
2023-04-28T10:55:36.384Z,4.85
2023-04-28T10:58:33.638Z,1.90
2023-04-28T11:01:30.813Z,4.22
2023-04-28T11:04:04.891Z,2.65
2023-04-28T11:06:36.131Z,1.45
2023-04-28T11:09:43.633Z,1.63
2023-04-28T11:12:13.583Z,6.10
2023-04-28T11:14:41.779Z,4.70
2023-04-28T11:17:13.571Z,3.05
2023-04-28T11:19:44.105Z,4.53
2023-04-28T11:22:17.337Z,4.30
2023-04-28T11:24:58.333Z,7.50
2023-04-28T11:27:29.953Z,2.85
2023-04-28T11:29:58.593Z,2.60
2023-04-28T11:32:31.579Z,4.20
2023-04-28T11:35:00.031Z,3.90
2023-04-28T11:37:28.568Z,1.80
2023-04-28T11:39:57.433Z,5.90
2023-04-28T11:42:28.294Z,3.35
2023-04-28T11:44:58.117Z,4.45
2023-04-28T11:47:33.894Z,2.60
2023-04-28T11:50:03.254Z,6.85
2023-04-28T11:52:32.095Z,3.58
2023-04-28T11:55:02.557Z,5.32
2023-04-28T11:57:32.354Z,2.60
2023-04-28T12:00:19.412Z,2.58
2023-04-28T12:02:48.634Z,4.30
2023-04-28T12:05:17.481Z,4.85
2023-04-28T12:07:46.768Z,4.15
2023-04-28T12:10:17.681Z,4.40
2023-04-28T12:12:51.904Z,7.40
2023-04-28T12:15:25.460Z,12.57
2023-04-28T12:17:53.992Z,5.07
2023-04-28T12:20:40.914Z,4.80
2023-04-28T12:23:09.461Z,4.88
2023-04-28T12:25:44.985Z,2.42
2023-04-28T12:28:13.376Z,3.50
2023-04-28T12:30:43.631Z,3.75
2023-04-28T12:33:24.653Z,4.80
2023-04-28T12:35:55.097Z,2.65
2023-04-28T12:38:23.875Z,5.07
2023-04-28T12:40:52.188Z,10.80
2023-04-28T12:43:23.117Z,5.15
2023-04-28T12:45:54.471Z,8.38
2023-04-28T12:48:23.911Z,7.07
2023-04-28T12:50:52.721Z,7.53
2023-04-28T12:53:21.138Z,6.00
2023-04-28T12:55:49.375Z,4.53
2023-04-28T12:58:18.406Z,5.05
2023-04-28T13:00:46.765Z,6.25
2023-04-28T13:03:16.609Z,13.13
2023-04-28T13:05:44.910Z,14.18
2023-04-28T13:08:14.122Z,12.40
2023-04-28T13:10:42.726Z,6.93
2023-04-28T13:13:11.029Z,12.35
2023-04-28T13:15:39.393Z,3.30
2023-04-28T13:18:08.105Z,11.25
2023-04-28T13:20:37.837Z,8.18
2023-04-28T13:23:06.625Z,11.43
2023-04-28T13:25:34.920Z,4.28
2023-04-28T13:28:03.464Z,6.38
2023-04-28T13:30:31.668Z,10.98
2023-04-28T13:33:00.051Z,7.53
2023-04-28T13:35:28.553Z,6.75
2023-04-28T13:38:02.735Z,7.68
2023-04-28T13:40:31.419Z,6.80
2023-04-28T13:42:59.678Z,11.43
2023-04-28T13:45:28.840Z,6.10
2023-04-28T13:47:57.198Z,5.78
2023-04-28T13:50:25.808Z,5.95
2023-04-28T13:52:54.194Z,4.43
2023-04-28T13:55:27.715Z,8.68
2023-04-28T13:57:56.779Z,9.90
2023-04-28T14:00:25.091Z,5.20
2023-04-28T14:02:53.569Z,5.35
2023-04-28T14:05:22.348Z,4.50
2023-04-28T14:07:50.844Z,8.35
2023-04-28T14:10:19.194Z,4.65
2023-04-28T14:12:49.145Z,5.95
2023-04-28T14:15:18.032Z,5.45
2023-04-28T14:17:46.380Z,5.38
2023-04-28T14:20:14.706Z,6.03
2023-04-28T14:22:42.981Z,5.45
2023-04-28T14:25:11.466Z,6.95
2023-04-28T14:27:39.670Z,7.80
2023-04-28T14:30:10.418Z,2.40
2023-04-28T14:32:40.089Z,3.88
2023-04-28T14:35:09.713Z,5.82
2023-04-28T14:37:38.341Z,3.17
2023-04-28T14:40:07.987Z,3.35
2023-04-28T14:42:37.568Z,4.20
2023-04-28T14:45:07.414Z,3.65
2023-04-28T14:47:40.553Z,3.33
2023-04-28T14:50:12.545Z,5.63
2023-04-28T14:52:42.647Z,5.22
2023-04-28T14:55:11.179Z,3.15
2023-04-28T14:57:39.529Z,4.30
2023-04-28T15:00:09.127Z,3.38
2023-04-28T15:02:41.020Z,10.23
2023-04-28T15:05:11.715Z,4.78
2023-04-28T15:07:40.197Z,11.65
2023-04-28T15:10:09.459Z,7.07
2023-04-28T15:12:37.738Z,4.68
2023-04-28T15:15:07.122Z,6.05
2023-04-28T15:17:35.612Z,5.90
2023-04-28T15:20:05.616Z,6.40
2023-04-28T15:22:33.893Z,5.63
2023-04-28T15:25:02.224Z,17.88
2023-04-28T15:27:32.360Z,4.80
2023-04-28T15:30:01.321Z,10.25
2023-04-28T15:32:32.975Z,8.18
2023-04-28T15:35:02.037Z,8.80
2023-04-28T15:37:44.956Z,12.02
2023-04-28T15:40:15.250Z,6.50
2023-04-28T15:42:48.975Z,7.53
2023-04-28T15:45:20.404Z,5.72
2023-04-28T15:47:51.038Z,7.25
2023-04-28T15:50:20.760Z,12.18
2023-04-28T15:52:51.317Z,13.82
2023-04-28T15:55:22.301Z,10.48
2023-04-28T15:57:52.477Z,5.30
2023-04-28T16:00:20.986Z,10.35
2023-04-28T16:02:49.379Z,12.05
2023-04-28T16:05:17.810Z,11.25
2023-04-28T16:07:46.056Z,11.57
2023-04-28T16:10:17.281Z,11.77
2023-04-28T16:12:45.847Z,7.88
2023-04-28T16:15:15.014Z,5.68
2023-04-28T16:17:44.519Z,4.32
2023-04-28T16:20:13.325Z,6.32
2023-04-28T16:22:42.475Z,4.97
2023-04-28T16:25:11.479Z,12.82
2023-04-28T16:27:42.128Z,14.57
2023-04-28T16:30:11.267Z,18.75
2023-04-28T16:32:40.814Z,9.25
2023-04-28T16:35:15.214Z,9.85
2023-04-28T16:37:44.475Z,4.63
2023-04-28T16:40:14.087Z,7.50
2023-04-28T16:42:45.166Z,5.28
2023-04-28T16:45:14.062Z,9.60
2023-04-28T16:47:43.847Z,9.32
2023-04-28T16:50:14.582Z,9.38
2023-04-28T16:52:43.234Z,6.38
2023-04-28T16:55:11.957Z,8.05
2023-04-28T16:57:40.135Z,7.68
2023-04-28T17:00:11.158Z,6.30
2023-04-28T17:02:39.800Z,8.60
2023-04-28T17:05:09.079Z,10.48
2023-04-28T17:07:37.557Z,8.00
2023-04-28T17:10:07.196Z,11.60
2023-04-28T17:12:35.497Z,9.80
2023-04-28T17:15:04.317Z,12.45
2023-04-28T17:17:34.736Z,13.27
2023-04-28T17:20:03.066Z,7.75
2023-04-28T17:22:33.212Z,10.02
2023-04-28T17:25:01.593Z,11.05
2023-04-28T17:27:30.218Z,9.02
2023-04-28T17:29:58.425Z,23.25
2023-04-28T17:32:27.335Z,22.13
2023-04-28T17:34:56.896Z,245.57
2023-04-28T17:37:25.193Z,93.38
2023-04-28T17:39:53.531Z,36.08
2023-04-28T17:42:21.813Z,39.00
2023-04-28T17:44:50.186Z,50.08
2023-04-28T17:47:18.930Z,35.30
2023-04-28T17:49:47.175Z,39.58
2023-04-28T17:52:17.064Z,36.60
2023-04-28T17:54:45.319Z,52.35
2023-04-28T17:57:14.480Z,37.38
2023-04-28T17:59:44.667Z,30.67
2023-04-28T18:02:14.203Z,26.83
2023-04-28T18:04:42.980Z,26.92
2023-04-28T18:07:11.636Z,32.97
2023-04-28T18:09:41.370Z,34.72
2023-04-28T18:12:10.223Z,38.20
2023-04-28T18:14:40.972Z,41.35
2023-04-28T18:17:09.410Z,57.42
2023-04-28T18:19:37.690Z,87.15
2023-04-28T18:22:06.190Z,76.80
2023-04-28T18:24:34.529Z,106.03
2023-04-28T18:27:04.333Z,124.18
2023-04-28T18:29:32.614Z,61.30
2023-04-28T18:32:01.074Z,65.05
2023-04-28T18:34:29.518Z,42.25
2023-04-28T18:36:57.827Z,12.10
2023-04-28T18:39:26.099Z,12.27
2023-04-28T18:41:54.381Z,8.15
2023-04-28T18:44:24.158Z,6.60
2023-04-28T18:46:52.835Z,9.43
2023-04-28T18:49:21.769Z,4.35
2023-04-28T18:51:50.049Z,5.55
2023-04-28T18:54:18.608Z,3.58
2023-04-28T18:56:48.058Z,4.63
2023-04-28T18:59:16.305Z,15.13
2023-04-28T19:01:46.035Z,4.72
2023-04-28T19:04:14.679Z,9.82
2023-04-28T19:06:44.045Z,8.60
2023-04-28T19:09:12.326Z,10.82
2023-04-28T19:11:40.530Z,11.38
2023-04-28T19:14:08.942Z,11.70
2023-04-28T19:16:37.442Z,15.43
2023-04-28T19:19:09.002Z,8.85
2023-04-28T19:21:44.527Z,9.88
2023-04-28T19:24:13.839Z,8.32
2023-04-28T19:26:42.038Z,8.98
2023-04-28T19:29:11.914Z,11.15
2023-04-28T19:31:40.147Z,15.52
2023-04-28T19:34:09.866Z,10.63
2023-04-28T19:36:38.197Z,8.90
2023-04-28T19:39:08.268Z,8.57
2023-04-28T19:41:36.938Z,11.38
2023-04-28T19:44:05.554Z,10.15
2023-04-28T19:46:33.840Z,12.55
2023-04-28T19:49:02.106Z,13.90
2023-04-28T19:51:31.727Z,11.55
2023-04-28T19:54:00.059Z,15.85
2023-04-28T19:56:28.614Z,33.88
2023-04-28T19:58:58.800Z,30.88
2023-04-28T20:01:27.109Z,31.23
2023-04-28T20:03:55.489Z,20.88
2023-04-28T20:06:23.916Z,17.40
2023-04-28T20:08:53.776Z,19.05
2023-04-28T20:11:22.083Z,15.40
2023-04-28T20:13:50.751Z,18.70
2023-04-28T20:16:20.461Z,20.20
2023-04-28T20:18:48.874Z,17.20
2023-04-28T20:21:17.192Z,15.68
2023-04-28T20:23:45.666Z,17.95
2023-04-28T20:26:16.235Z,13.45
2023-04-28T20:28:46.634Z,17.33
2023-04-28T20:31:15.453Z,14.82
2023-04-28T20:33:43.658Z,12.68
2023-04-28T20:36:13.575Z,12.27
2023-04-28T20:38:42.498Z,14.13
2023-04-28T20:41:10.876Z,15.65
2023-04-28T20:43:40.960Z,15.25
2023-04-28T20:46:11.184Z,19.17
2023-04-28T20:48:39.479Z,14.88
2023-04-28T20:51:07.910Z,10.93
2023-04-28T20:53:36.547Z,11.38
2023-04-28T20:56:05.052Z,14.77
2023-04-28T20:58:33.364Z,16.63
2023-04-28T21:01:03.275Z,12.50
2023-04-28T21:03:31.884Z,14.77
2023-04-28T21:06:00.236Z,18.25
2023-04-28T21:08:29.831Z,16.27
2023-04-28T21:10:58.032Z,9.50
2023-04-28T21:13:26.347Z,9.35
2023-04-28T21:15:54.543Z,16.50
2023-04-28T21:18:24.246Z,9.35
2023-04-28T21:20:54.688Z,8.30
2023-04-28T21:23:22.970Z,8.38
2023-04-28T21:25:51.338Z,8.23
2023-04-28T21:28:19.600Z,9.30
2023-04-28T21:30:47.841Z,11.25
2023-04-28T21:33:16.085Z,16.45
2023-04-28T21:35:45.673Z,10.77
2023-04-28T21:38:13.971Z,15.98
2023-04-28T21:40:42.207Z,13.35
2023-04-28T21:43:10.579Z,9.23
2023-04-28T21:45:38.756Z,9.35
2023-04-28T21:48:08.106Z,12.13
2023-04-28T21:50:37.565Z,9.00
2023-04-28T21:53:07.342Z,12.57
2023-04-28T21:55:35.563Z,10.35
2023-04-28T21:58:03.866Z,11.27
2023-04-28T22:00:32.856Z,9.43
2023-04-28T22:03:01.240Z,13.50
2023-04-28T22:05:29.695Z,9.05
2023-04-28T22:07:57.942Z,10.25
2023-04-28T22:10:27.626Z,12.18
2023-04-28T22:12:55.931Z,8.90
2023-04-28T22:15:24.194Z,10.07
2023-04-28T22:17:52.453Z,10.50
2023-04-28T22:20:20.716Z,13.00
2023-04-28T22:22:49.056Z,14.55
2023-04-28T22:25:17.511Z,12.38
2023-04-28T22:27:47.334Z,9.95
2023-04-28T22:30:16.196Z,13.25
2023-04-28T22:32:46.939Z,11.35
2023-04-28T22:35:16.643Z,11.93
2023-04-28T22:37:45.241Z,11.88
2023-04-28T22:40:13.659Z,11.95
2023-04-28T22:42:43.508Z,11.90
2023-04-28T22:45:13.664Z,12.60
2023-04-28T22:47:42.938Z,11.38
2023-04-28T22:50:12.632Z,11.38
2023-04-28T22:52:41.431Z,12.60
2023-04-28T22:55:10.582Z,13.52
2023-04-28T22:57:38.884Z,8.48
2023-04-28T23:00:08.426Z,8.45
2023-04-28T23:02:38.695Z,11.15
2023-04-28T23:05:07.742Z,10.45
2023-04-28T23:07:36.054Z,15.95
2023-04-28T23:10:05.135Z,9.50
2023-04-28T23:12:33.593Z,6.35
2023-04-28T23:15:02.169Z,7.95
2023-04-28T23:17:32.743Z,6.70
2023-04-28T23:20:02.400Z,7.03
2023-04-28T23:22:33.881Z,11.95
2023-04-28T23:25:02.411Z,12.50
2023-04-28T23:27:32.652Z,10.60
2023-04-28T23:30:01.235Z,9.35
2023-04-28T23:32:29.918Z,10.43
2023-04-28T23:34:58.445Z,8.02
2023-04-28T23:37:28.382Z,6.15
2023-04-28T23:39:56.903Z,6.72
2023-04-28T23:42:25.303Z,9.00
2023-04-28T23:44:53.857Z,9.05
2023-04-28T23:47:22.607Z,7.07
2023-04-28T23:49:51.630Z,4.82
2023-04-28T23:52:20.075Z,5.47
2023-04-28T23:54:49.880Z,6.80
2023-04-28T23:57:19.120Z,7.90
2023-04-28T23:59:48.102Z,4.72
